Disautel, Washington
Current Conditions -  °F | °C
As of 9:02 PM on Saturday 22 Nov 2014 (Local Time) from KOMK Reporting Station
Moderate Fog Moderate Fog  
Wind Chill: 15°   Ceiling: 600
Heat Index: 21°   Visibility: 0.25mi
Dew Point: 19°   Wind: 5mph
Humidity: 92%   Direction: 350°N
Pressure: 29.95"   Gusts: NA
Location:  48.4274°N, 119.524°W
Report Text: KOMK 230502Z AUTO 35004KT 1/4SM FZFG VV006 M06/M07 A2995 RMK AO2 T10611072
Loading
Personal Weather Stations






























Interactive Weather Map New forecast layout! Learn more

10-Day Weather Forecast

Advertisements
Track Severe Weather on mobile